sensor_id;sensor_type;location;lat;lon;timestamp;pressure;altitude;pressure_sealevel;temperature;humidity
68169;BME280;54981;50.206;15.978;2022-11-12T00:01:34;100549.72;;;3.37;100.00
68169;BME280;54981;50.206;15.978;2022-11-12T00:03:59;100554.97;;;3.36;100.00
68169;BME280;54981;50.206;15.978;2022-11-12T00:06:27;100548.84;;;3.37;100.00
68169;BME280;54981;50.206;15.978;2022-11-12T00:08:52;100549.72;;;3.42;100.00
68169;BME280;54981;50.206;15.978;2022-11-12T00:11:17;100552.38;;;3.30;100.00
68169;BME280;54981;50.206;15.978;2022-11-12T00:13:43;100558.50;;;3.26;100.00
68169;BME280;54981;50.206;15.978;2022-11-12T00:16:08;100555.84;;;3.29;100.00
68169;BME280;54981;50.206;15.978;2022-11-12T00:18:34;100562.00;;;3.28;100.00
68169;BME280;54981;50.206;15.978;2022-11-12T00:20:59;100553.25;;;3.27;100.00
68169;BME280;54981;50.206;15.978;2022-11-12T00:23:24;100560.25;;;3.30;100.00
68169;BME280;54981;50.206;15.978;2022-11-12T00:26:00;100555.00;;;3.34;100.00
68169;BME280;54981;50.206;15.978;2022-11-12T00:28:25;100548.84;;;3.23;100.00
68169;BME280;54981;50.206;15.978;2022-11-12T00:30:50;100553.22;;;3.23;100.00
68169;BME280;54981;50.206;15.978;2022-11-12T00:33:16;100554.09;;;3.18;100.00
68169;BME280;54981;50.206;15.978;2022-11-12T00:35:41;100554.09;;;3.18;100.00
68169;BME280;54981;50.206;15.978;2022-11-12T00:38:07;100555.88;;;3.23;100.00
68169;BME280;54981;50.206;15.978;2022-11-12T00:40:32;100553.22;;;3.18;100.00
68169;BME280;54981;50.206;15.978;2022-11-12T00:42:57;100555.88;;;3.23;100.00
68169;BME280;54981;50.206;15.978;2022-11-12T00:45:23;100545.31;;;3.19;100.00
68169;BME280;54981;50.206;15.978;2022-11-12T00:47:48;100549.72;;;3.16;100.00
68169;BME280;54981;50.206;15.978;2022-11-12T00:50:14;100559.34;;;3.22;100.00
68169;BME280;54981;50.206;15.978;2022-11-12T00:52:40;100554.09;;;3.20;100.00
68169;BME280;54981;50.206;15.978;2022-11-12T00:55:05;100553.19;;;3.12;100.00
68169;BME280;54981;50.206;15.978;2022-11-12T00:57:31;100547.06;;;3.08;100.00
68169;BME280;54981;50.206;15.978;2022-11-12T00:59:56;100550.56;;;3.01;100.00
68169;BME280;54981;50.206;15.978;2022-11-12T01:02:21;100552.31;;;2.96;100.00
68169;BME280;54981;50.206;15.978;2022-11-12T01:04:47;100548.78;;;2.89;100.00
68169;BME280;54981;50.206;15.978;2022-11-12T01:07:12;100549.66;;;2.90;100.00
68169;BME280;54981;50.206;15.978;2022-11-12T01:09:40;100550.53;;;2.86;100.00
68169;BME280;54981;50.206;15.978;2022-11-12T01:12:05;100546.16;;;2.86;100.00
68169;BME280;54981;50.206;15.978;2022-11-12T01:14:31;100547.91;;;2.80;100.00
68169;BME280;54981;50.206;15.978;2022-11-12T01:16:56;100544.34;;;2.76;100.00
68169;BME280;54981;50.206;15.978;2022-11-12T01:19:21;100547.00;;;2.74;100.00
68169;BME280;54981;50.206;15.978;2022-11-12T01:21:47;100546.97;;;2.68;100.00
68169;BME280;54981;50.206;15.978;2022-11-12T01:24:12;100541.72;;;2.62;100.00
68169;BME280;54981;50.206;15.978;2022-11-12T01:26:37;100546.06;;;2.62;100.00
68169;BME280;54981;50.206;15.978;2022-11-12T01:29:03;100539.94;;;2.56;100.00
68169;BME280;54981;50.206;15.978;2022-11-12T01:31:36;100532.91;;;2.51;100.00
68169;BME280;54981;50.206;15.978;2022-11-12T01:34:05;100543.41;;;2.49;100.00
68169;BME280;54981;50.206;15.978;2022-11-12T01:36:36;100542.50;;;2.43;100.00
68169;BME280;54981;50.206;15.978;2022-11-12T01:39:04;100543.38;;;2.42;100.00
68169;BME280;54981;50.206;15.978;2022-11-12T01:41:33;100541.63;;;2.45;100.00
68169;BME280;54981;50.206;15.978;2022-11-12T01:46:31;100548.69;;;2.51;100.00
68169;BME280;54981;50.206;15.978;2022-11-12T01:49:02;100546.03;;;2.46;100.00
68169;BME280;54981;50.206;15.978;2022-11-12T01:51:41;100534.66;;;2.49;100.00
68169;BME280;54981;50.206;15.978;2022-11-12T01:54:10;100542.56;;;2.55;100.00
68169;BME280;54981;50.206;15.978;2022-11-12T01:56:36;100545.16;;;2.52;100.00
68169;BME280;54981;50.206;15.978;2022-11-12T01:59:07;100542.53;;;2.52;100.00
68169;BME280;54981;50.206;15.978;2022-11-12T02:01:37;100540.78;;;2.48;100.00
68169;BME280;54981;50.206;15.978;2022-11-12T02:04:02;100536.38;;;2.50;100.00
68169;BME280;54981;50.206;15.978;2022-11-12T02:06:28;100539.03;;;2.51;100.00
68169;BME280;54981;50.206;15.978;2022-11-12T02:08:55;100530.28;;;2.54;100.00
68169;BME280;54981;50.206;15.978;2022-11-12T02:11:20;100530.28;;;2.59;100.00
68169;BME280;54981;50.206;15.978;2022-11-12T02:13:48;100532.94;;;2.60;100.00
68169;BME280;54981;50.206;15.978;2022-11-12T02:16:30;100531.16;;;2.53;100.00
68169;BME280;54981;50.206;15.978;2022-11-12T02:18:56;100529.41;;;2.55;100.00
68169;BME280;54981;50.206;15.978;2022-11-12T02:21:23;100527.66;;;2.57;100.00
68169;BME280;54981;50.206;15.978;2022-11-12T02:26:39;100521.53;;;2.61;100.00
68169;BME280;54981;50.206;15.978;2022-11-12T02:29:05;100522.41;;;2.63;100.00
68169;BME280;54981;50.206;15.978;2022-11-12T02:31:31;100522.41;;;2.69;100.00
68169;BME280;54981;50.206;15.978;2022-11-12T02:33:56;100524.19;;;2.76;100.00
68169;BME280;54981;50.206;15.978;2022-11-12T02:36:22;100525.97;;;2.82;100.00
68169;BME280;54981;50.206;15.978;2022-11-12T02:38:48;100521.56;;;2.78;100.00
68169;BME280;54981;50.206;15.978;2022-11-12T02:41:13;100527.72;;;2.77;100.00
68169;BME280;54981;50.206;15.978;2022-11-12T02:43:39;100525.09;;;2.80;100.00
68169;BME280;54981;50.206;15.978;2022-11-12T02:46:05;100533.00;;;2.82;100.00
68169;BME280;54981;50.206;15.978;2022-11-12T02:48:31;100532.97;;;2.78;100.00
68169;BME280;54981;50.206;15.978;2022-11-12T02:50:57;100539.13;;;2.79;100.00
68169;BME280;54981;50.206;15.978;2022-11-12T02:53:22;100542.63;;;2.80;100.00
68169;BME280;54981;50.206;15.978;2022-11-12T02:55:47;100547.88;;;2.81;100.00
68169;BME280;54981;50.206;15.978;2022-11-12T02:58:13;100541.72;;;2.71;100.00
68169;BME280;54981;50.206;15.978;2022-11-12T03:00:38;100537.34;;;2.73;100.00
68169;BME280;54981;50.206;15.978;2022-11-12T03:03:03;100525.94;;;2.65;100.00
68169;BME280;54981;50.206;15.978;2022-11-12T03:05:30;100532.94;;;2.68;100.00
68169;BME280;54981;50.206;15.978;2022-11-12T03:08:02;100532.94;;;2.66;100.00
68169;BME280;54981;50.206;15.978;2022-11-12T03:10:28;100530.31;;;2.63;100.00
68169;BME280;54981;50.206;15.978;2022-11-12T03:12:55;100525.03;;;2.63;100.00
68169;BME280;54981;50.206;15.978;2022-11-12T03:15:21;100525.91;;;2.56;100.00
68169;BME280;54981;50.206;15.978;2022-11-12T03:17:47;100523.31;;;2.65;100.00
68169;BME280;54981;50.206;15.978;2022-11-12T03:20:12;100521.56;;;2.67;100.00
68169;BME280;54981;50.206;15.978;2022-11-12T03:22:38;100520.69;;;2.71;100.00
68169;BME280;54981;50.206;15.978;2022-11-12T03:25:05;100524.19;;;2.73;100.00
68169;BME280;54981;50.206;15.978;2022-11-12T03:27:30;100525.94;;;2.70;100.00
68169;BME280;54981;50.206;15.978;2022-11-12T03:29:56;100523.31;;;2.73;100.00
68169;BME280;54981;50.206;15.978;2022-11-12T03:32:21;100522.41;;;2.69;100.00
68169;BME280;54981;50.206;15.978;2022-11-12T03:34:47;100519.78;;;2.63;100.00
68169;BME280;54981;50.206;15.978;2022-11-12T03:37:12;100525.94;;;2.68;100.00
68169;BME280;54981;50.206;15.978;2022-11-12T03:39:38;100517.13;;;2.54;100.00
68169;BME280;54981;50.206;15.978;2022-11-12T03:42:03;100517.16;;;2.66;100.00
68169;BME280;54981;50.206;15.978;2022-11-12T03:44:29;100519.78;;;2.59;100.00
68169;BME280;54981;50.206;15.978;2022-11-12T03:46:54;100517.16;;;2.66;100.00
68169;BME280;54981;50.206;15.978;2022-11-12T03:49:19;100506.59;;;2.52;100.00
68169;BME280;54981;50.206;15.978;2022-11-12T03:51:45;100512.72;;;2.47;100.00
68169;BME280;54981;50.206;15.978;2022-11-12T03:54:11;100510.09;;;2.41;100.00
68169;BME280;54981;50.206;15.978;2022-11-12T03:56:36;100515.31;;;2.34;100.00
68169;BME280;54981;50.206;15.978;2022-11-12T03:59:01;100508.28;;;2.27;100.00
68169;BME280;54981;50.206;15.978;2022-11-12T04:01:27;100501.25;;;2.20;100.00
68169;BME280;54981;50.206;15.978;2022-11-12T04:03:52;100506.47;;;2.19;100.00
68169;BME280;54981;50.206;15.978;2022-11-12T04:06:17;100508.25;;;2.21;100.00
68169;BME280;54981;50.206;15.978;2022-11-12T04:09:01;100512.63;;;2.15;100.00
68169;BME280;54981;50.206;15.978;2022-11-12T04:11:27;100501.22;;;2.12;100.00
68169;BME280;54981;50.206;15.978;2022-11-12T04:13:52;100508.22;;;2.15;100.00
68169;BME280;54981;50.206;15.978;2022-11-12T04:16:19;100510.00;;;2.18;100.00
68169;BME280;54981;50.206;15.978;2022-11-12T04:19:05;100508.22;;;2.15;100.00
68169;BME280;54981;50.206;15.978;2022-11-12T04:21:53;100505.56;;;2.09;100.00
68169;BME280;54981;50.206;15.978;2022-11-12T04:24:31;100504.72;;;2.15;100.00
68169;BME280;54981;50.206;15.978;2022-11-12T04:27:22;100509.97;;;2.16;100.00
68169;BME280;54981;50.206;15.978;2022-11-12T04:29:48;100504.75;;;2.21;100.00
68169;BME280;54981;50.206;15.978;2022-11-12T04:32:37;100508.25;;;2.21;100.00
68169;BME280;54981;50.206;15.978;2022-11-12T04:35:05;100511.78;;;2.26;100.00
68169;BME280;54981;50.206;15.978;2022-11-12T04:37:33;100510.00;;;2.25;100.00
68169;BME280;54981;50.206;15.978;2022-11-12T04:40:18;100517.91;;;2.28;100.00
68169;BME280;54981;50.206;15.978;2022-11-12T04:43:03;100508.28;;;2.30;100.00
68169;BME280;54981;50.206;15.978;2022-11-12T04:45:50;100510.91;;;2.27;100.00
68169;BME280;54981;50.206;15.978;2022-11-12T04:48:16;100502.16;;;2.24;100.00
68169;BME280;54981;50.206;15.978;2022-11-12T04:50:44;100511.78;;;2.28;100.00
68169;BME280;54981;50.206;15.978;2022-11-12T04:53:10;100496.91;;;2.30;100.00
68169;BME280;54981;50.206;15.978;2022-11-12T04:55:36;100507.44;;;2.31;100.00
68169;BME280;54981;50.206;15.978;2022-11-12T04:58:01;100503.06;;;2.37;100.00
68169;BME280;54981;50.206;15.978;2022-11-12T05:00:27;100503.91;;;2.35;100.00
68169;BME280;54981;50.206;15.978;2022-11-12T05:02:53;100502.19;;;2.38;100.00
68169;BME280;54981;50.206;15.978;2022-11-12T05:05:18;100503.94;;;2.39;100.00
68169;BME280;54981;50.206;15.978;2022-11-12T05:07:43;100503.06;;;2.33;100.00
68169;BME280;54981;50.206;15.978;2022-11-12T05:10:09;100499.53;;;2.27;100.00
68169;BME280;54981;50.206;15.978;2022-11-12T05:12:35;100502.22;;;2.47;100.00
68169;BME280;54981;50.206;15.978;2022-11-12T05:15:00;100498.72;;;2.46;100.00
68169;BME280;54981;50.206;15.978;2022-11-12T05:17:26;100510.09;;;2.41;100.00
68169;BME280;54981;50.206;15.978;2022-11-12T05:19:52;100512.66;;;2.25;100.00
68169;BME280;54981;50.206;15.978;2022-11-12T05:22:17;100514.38;;;2.23;100.00
68169;BME280;54981;50.206;15.978;2022-11-12T05:24:43;100513.50;;;2.23;100.00
68169;BME280;54981;50.206;15.978;2022-11-12T05:27:14;100506.53;;;2.26;100.00
68169;BME280;54981;50.206;15.978;2022-11-12T05:29:40;100514.41;;;2.25;100.00
68169;BME280;54981;50.206;15.978;2022-11-12T05:32:06;100520.50;;;2.19;100.00
68169;BME280;54981;50.206;15.978;2022-11-12T05:34:32;100510.06;;;2.31;100.00
68169;BME280;54981;50.206;15.978;2022-11-12T05:36:58;100524.97;;;2.37;100.00
68169;BME280;54981;50.206;15.978;2022-11-12T05:39:24;100526.72;;;2.43;100.00
68169;BME280;54981;50.206;15.978;2022-11-12T05:41:50;100534.66;;;2.46;100.00
68169;BME280;54981;50.206;15.978;2022-11-12T05:44:15;100525.88;;;2.47;100.00
68169;BME280;54981;50.206;15.978;2022-11-12T05:46:41;100525.00;;;2.48;100.00
68169;BME280;54981;50.206;15.978;2022-11-12T05:49:07;100527.66;;;2.51;100.00
68169;BME280;54981;50.206;15.978;2022-11-12T05:51:32;100527.66;;;2.48;100.00
68169;BME280;54981;50.206;15.978;2022-11-12T05:53:58;100526.78;;;2.56;100.00
68169;BME280;54981;50.206;15.978;2022-11-12T05:56:23;100525.94;;;2.62;100.00
68169;BME280;54981;50.206;15.978;2022-11-12T05:58:48;100531.19;;;2.65;100.00
68169;BME280;54981;50.206;15.978;2022-11-12T06:01:14;100538.19;;;2.63;100.00
68169;BME280;54981;50.206;15.978;2022-11-12T06:03:39;100532.94;;;2.63;100.00
68169;BME280;54981;50.206;15.978;2022-11-12T06:06:04;100543.47;;;2.60;100.00
68169;BME280;54981;50.206;15.978;2022-11-12T06:08:30;100539.94;;;2.61;100.00
68169;BME280;54981;50.206;15.978;2022-11-12T06:10:55;100539.97;;;2.70;100.00
68169;BME280;54981;50.206;15.978;2022-11-12T06:13:22;100544.38;;;2.85;100.00
68169;BME280;54981;50.206;15.978;2022-11-12T06:15:48;100539.16;;;2.87;100.00
68169;BME280;54981;50.206;15.978;2022-11-12T06:18:13;100542.63;;;2.83;100.00
68169;BME280;54981;50.206;15.978;2022-11-12T06:20:39;100541.75;;;2.85;100.00
68169;BME280;54981;50.206;15.978;2022-11-12T06:23:04;100540.00;;;2.83;100.00
68169;BME280;54981;50.206;15.978;2022-11-12T06:25:30;100540.00;;;2.83;100.00
68169;BME280;54981;50.206;15.978;2022-11-12T06:27:55;100539.13;;;2.88;100.00
68169;BME280;54981;50.206;15.978;2022-11-12T06:30:21;100535.59;;;2.78;100.00
68169;BME280;54981;50.206;15.978;2022-11-12T06:32:47;100541.75;;;2.74;100.00
68169;BME280;54981;50.206;15.978;2022-11-12T06:35:13;100547.00;;;2.77;100.00
68169;BME280;54981;50.206;15.978;2022-11-12T06:37:39;100551.38;;;2.75;100.00
68169;BME280;54981;50.206;15.978;2022-11-12T06:40:05;100544.38;;;2.85;100.00
68169;BME280;54981;50.206;15.978;2022-11-12T06:42:31;100553.16;;;2.80;100.00
68169;BME280;54981;50.206;15.978;2022-11-12T06:44:56;100554.91;;;2.81;100.00
68169;BME280;54981;50.206;15.978;2022-11-12T06:47:22;100554.03;;;2.85;100.00
68169;BME280;54981;50.206;15.978;2022-11-12T06:49:47;100554.94;;;2.90;100.00
68169;BME280;54981;50.206;15.978;2022-11-12T06:52:14;100557.56;;;2.90;100.00
68169;BME280;54981;50.206;15.978;2022-11-12T06:54:39;100564.56;;;2.91;100.00
68169;BME280;54981;50.206;15.978;2022-11-12T06:57:04;100554.94;;;2.91;100.00
68169;BME280;54981;50.206;15.978;2022-11-12T06:59:29;100568.97;;;2.96;100.00
68169;BME280;54981;50.206;15.978;2022-11-12T07:01:55;100569.88;;;3.02;100.00
68169;BME280;54981;50.206;15.978;2022-11-12T07:04:20;100576.00;;;3.07;100.00
68169;BME280;54981;50.206;15.978;2022-11-12T07:06:45;100574.28;;;3.16;100.00
68169;BME280;54981;50.206;15.978;2022-11-12T07:09:11;100583.91;;;3.17;100.00
68169;BME280;54981;50.206;15.978;2022-11-12T07:11:36;100583.91;;;3.17;100.00
68169;BME280;54981;50.206;15.978;2022-11-12T07:14:04;100579.53;;;3.24;100.00
68169;BME280;54981;50.206;15.978;2022-11-12T07:16:31;100587.44;;;3.29;100.00
68169;BME280;54981;50.206;15.978;2022-11-12T07:18:56;100590.09;;;3.30;100.00
68169;BME280;54981;50.206;15.978;2022-11-12T07:21:21;100584.81;;;3.36;100.00
68169;BME280;54981;50.206;15.978;2022-11-12T07:23:47;100589.22;;;3.40;100.00
68169;BME280;54981;50.206;15.978;2022-11-12T07:26:18;100585.72;;;3.40;100.00
68169;BME280;54981;50.206;15.978;2022-11-12T07:28:45;100590.09;;;3.35;100.00
68169;BME280;54981;50.206;15.978;2022-11-12T07:31:12;100587.44;;;3.33;100.00
68169;BME280;54981;50.206;15.978;2022-11-12T07:33:38;100586.59;;;3.40;100.00
68169;BME280;54981;50.206;15.978;2022-11-12T07:36:12;100590.09;;;3.44;100.00
68169;BME280;54981;50.206;15.978;2022-11-12T07:38:38;100583.06;;;3.41;100.00
68169;BME280;54981;50.206;15.978;2022-11-12T07:41:12;100583.97;;;3.47;100.00
68169;BME280;54981;50.206;15.978;2022-11-12T07:43:39;100580.47;;;3.54;100.00
68169;BME280;54981;50.206;15.978;2022-11-12T07:48:37;100584.84;;;3.59;100.00
68169;BME280;54981;50.206;15.978;2022-11-12T07:51:05;100580.44;;;3.55;100.00
68169;BME280;54981;50.206;15.978;2022-11-12T07:53:30;100578.69;;;3.57;100.00
68169;BME280;54981;50.206;15.978;2022-11-12T07:55:58;100581.34;;;3.51;100.00
68169;BME280;54981;50.206;15.978;2022-11-12T07:58:25;100588.34;;;3.54;100.00
68169;BME280;54981;50.206;15.978;2022-11-12T08:00:52;100590.97;;;3.52;100.00
68169;BME280;54981;50.206;15.978;2022-11-12T08:03:17;100583.09;;;3.57;100.00
68169;BME280;54981;50.206;15.978;2022-11-12T08:05:43;100575.16;;;3.65;100.00
68169;BME280;54981;50.206;15.978;2022-11-12T08:08:09;100570.78;;;3.71;100.00
68169;BME280;54981;50.206;15.978;2022-11-12T08:10:35;100576.94;;;3.78;100.00
68169;BME280;54981;50.206;15.978;2022-11-12T08:13:00;100577.78;;;3.80;100.00
68169;BME280;54981;50.206;15.978;2022-11-12T08:15:26;100583.09;;;3.75;100.00
68169;BME280;54981;50.206;15.978;2022-11-12T08:17:51;100585.72;;;3.74;100.00
68169;BME280;54981;50.206;15.978;2022-11-12T08:20:16;100590.09;;;3.82;100.00
68169;BME280;54981;50.206;15.978;2022-11-12T08:22:41;100587.44;;;3.84;100.00
68169;BME280;54981;50.206;15.978;2022-11-12T08:25:07;100588.34;;;3.78;100.00
68169;BME280;54981;50.206;15.978;2022-11-12T08:27:33;100585.69;;;3.77;100.00
68169;BME280;54981;50.206;15.978;2022-11-12T08:29:59;100583.06;;;3.83;100.00
68169;BME280;54981;50.206;15.978;2022-11-12T08:32:24;100586.59;;;3.90;100.00
68169;BME280;54981;50.206;15.978;2022-11-12T08:34:49;100580.44;;;3.83;100.00
68169;BME280;54981;50.206;15.978;2022-11-12T08:37:15;100579.53;;;3.79;100.00
68169;BME280;54981;50.206;15.978;2022-11-12T08:39:40;100588.34;;;3.88;100.00
68169;BME280;54981;50.206;15.978;2022-11-12T08:42:06;100593.59;;;3.91;100.00
68169;BME280;54981;50.206;15.978;2022-11-12T08:44:31;100597.97;;;4.02;100.00
68169;BME280;54981;50.206;15.978;2022-11-12T08:46:56;100587.41;;;4.05;100.00
68169;BME280;54981;50.206;15.978;2022-11-12T08:49:23;100588.22;;;4.32;100.00
68169;BME280;54981;50.206;15.978;2022-11-12T08:51:49;100594.44;;;4.19;100.00
68169;BME280;54981;50.206;15.978;2022-11-12T08:54:14;100592.66;;;4.21;100.00
68169;BME280;54981;50.206;15.978;2022-11-12T08:56:39;100591.78;;;4.22;100.00
68169;BME280;54981;50.206;15.978;2022-11-12T08:59:04;100585.59;;;4.23;100.00
68169;BME280;54981;50.206;15.978;2022-11-12T09:01:30;100589.09;;;4.28;100.00
68169;BME280;54981;50.206;15.978;2022-11-12T09:03:55;100594.38;;;4.28;100.00
68169;BME280;54981;50.206;15.978;2022-11-12T09:06:20;100592.63;;;4.32;100.00
68169;BME280;54981;50.206;15.978;2022-11-12T09:08:46;100590.00;;;4.32;100.00
68169;BME280;54981;50.206;15.978;2022-11-12T09:11:11;100578.53;;;4.37;100.00
68169;BME280;54981;50.206;15.978;2022-11-12T09:13:36;100582.03;;;4.44;100.00
68169;BME280;54981;50.206;15.978;2022-11-12T09:16:04;100586.41;;;4.49;100.00
68169;BME280;54981;50.206;15.978;2022-11-12T09:18:30;100577.59;;;4.58;100.00
68169;BME280;54981;50.206;15.978;2022-11-12T09:24:50;100582.78;;;4.74;100.00
68169;BME280;54981;50.206;15.978;2022-11-12T09:27:16;100586.28;;;4.80;100.00
68169;BME280;54981;50.206;15.978;2022-11-12T09:29:41;100584.59;;;4.64;100.00
68169;BME280;54981;50.206;15.978;2022-11-12T09:32:06;100593.38;;;4.72;100.00
68169;BME280;54981;50.206;15.978;2022-11-12T09:34:32;100588.03;;;4.80;100.00
68169;BME280;54981;50.206;15.978;2022-11-12T09:36:57;100583.63;;;4.85;100.00
68169;BME280;54981;50.206;15.978;2022-11-12T09:39:22;100594.19;;;4.85;100.00
68169;BME280;54981;50.206;15.978;2022-11-12T09:41:47;100594.19;;;4.86;100.00
68169;BME280;54981;50.206;15.978;2022-11-12T09:44:17;100590.66;;;4.89;100.00
68169;BME280;54981;50.206;15.978;2022-11-12T09:46:44;100596.84;;;4.80;100.00
68169;BME280;54981;50.206;15.978;2022-11-12T09:49:45;100589.78;;;4.81;100.00
68169;BME280;54981;50.206;15.978;2022-11-12T09:52:20;100595.06;;;4.84;100.00
68169;BME280;54981;50.206;15.978;2022-11-12T09:54:51;100595.03;;;4.85;100.00
68169;BME280;54981;50.206;15.978;2022-11-12T09:57:19;100589.78;;;4.87;100.00
68169;BME280;54981;50.206;15.978;2022-11-12T09:59:44;100600.31;;;4.90;100.00
68169;BME280;54981;50.206;15.978;2022-11-12T10:02:36;100595.00;;;4.96;100.00
68169;BME280;54981;50.206;15.978;2022-11-12T10:08:19;100594.91;;;5.11;100.00
68169;BME280;54981;50.206;15.978;2022-11-12T10:11:09;100598.38;;;5.23;100.00
68169;BME280;54981;50.206;15.978;2022-11-12T10:13:45;100593.94;;;5.29;100.00
68169;BME280;54981;50.206;15.978;2022-11-12T10:19:43;100587.78;;;5.27;100.00
68169;BME280;54981;50.206;15.978;2022-11-12T10:24:47;100593.09;;;5.21;100.00
68169;BME280;54981;50.206;15.978;2022-11-12T10:27:18;100585.16;;;5.21;100.00
68169;BME280;54981;50.206;15.978;2022-11-12T10:29:56;100586.88;;;5.28;100.00
68169;BME280;54981;50.206;15.978;2022-11-12T10:32:23;100586.84;;;5.34;100.00
68169;BME280;54981;50.206;15.978;2022-11-12T10:34:48;100581.50;;;5.41;100.00
68169;BME280;54981;50.206;15.978;2022-11-12T10:37:26;100583.25;;;5.43;100.00
68169;BME280;54981;50.206;15.978;2022-11-12T10:39:53;100576.25;;;5.38;100.00
68169;BME280;54981;50.206;15.978;2022-11-12T10:42:20;100578.91;;;5.34;100.00
68169;BME280;54981;50.206;15.978;2022-11-12T10:44:47;100578.09;;;5.29;100.00
68169;BME280;54981;50.206;15.978;2022-11-12T10:47:23;100580.69;;;5.32;100.00
68169;BME280;54981;50.206;15.978;2022-11-12T10:53:05;100574.56;;;5.27;100.00
68169;BME280;54981;50.206;15.978;2022-11-12T10:55:34;100578.97;;;5.27;100.00
68169;BME280;54981;50.206;15.978;2022-11-12T11:00:28;100572.78;;;5.26;100.00
68169;BME280;54981;50.206;15.978;2022-11-12T11:02:54;100572.78;;;5.26;100.00
68169;BME280;54981;50.206;15.978;2022-11-12T11:05:33;100564.91;;;5.23;100.00
68169;BME280;54981;50.206;15.978;2022-11-12T11:07:59;100566.66;;;5.26;100.00
68169;BME280;54981;50.206;15.978;2022-11-12T11:10:29;100564.00;;;5.27;100.00
68169;BME280;54981;50.206;15.978;2022-11-12T11:15:33;100551.50;;;5.48;100.00
68169;BME280;54981;50.206;15.978;2022-11-12T11:17:58;100563.88;;;5.44;100.00
68169;BME280;54981;50.206;15.978;2022-11-12T11:20:27;100548.03;;;5.43;100.00
68169;BME280;54981;50.206;15.978;2022-11-12T11:23:03;100556.78;;;5.51;100.00
68169;BME280;54981;50.206;15.978;2022-11-12T11:25:33;100566.47;;;5.47;100.00
68169;BME280;54981;50.206;15.978;2022-11-12T11:37:26;100562.06;;;5.48;100.00
68169;BME280;54981;50.206;15.978;2022-11-12T11:40:03;100567.34;;;5.51;100.00
68169;BME280;54981;50.206;15.978;2022-11-12T11:42:50;100563.84;;;5.46;100.00
68169;BME280;54981;50.206;15.978;2022-11-12T11:48:31;100550.56;;;5.58;100.00
68169;BME280;54981;50.206;15.978;2022-11-12T11:53:54;100547.91;;;5.55;100.00
68169;BME280;54981;50.206;15.978;2022-11-12T11:56:35;100553.13;;;5.64;100.00
68169;BME280;54981;50.206;15.978;2022-11-12T11:59:27;100549.75;;;5.47;100.00
68169;BME280;54981;50.206;15.978;2022-11-12T12:02:15;100536.59;;;5.42;100.00
68169;BME280;54981;50.206;15.978;2022-11-12T12:04:47;100546.25;;;5.45;100.00
68169;BME280;54981;50.206;15.978;2022-11-12T12:07:46;100544.50;;;5.41;100.00
68169;BME280;54981;50.206;15.978;2022-11-12T12:10:35;100541.91;;;5.39;100.00
68169;BME280;54981;50.206;15.978;2022-11-12T12:16:01;100544.50;;;5.41;100.00
68169;BME280;54981;50.206;15.978;2022-11-12T12:18:52;100542.72;;;5.47;100.00
68169;BME280;54981;50.206;15.978;2022-11-12T12:21:22;100545.31;;;5.50;100.00
68169;BME280;54981;50.206;15.978;2022-11-12T12:23:54;100542.63;;;5.55;100.00
68169;BME280;54981;50.206;15.978;2022-11-12T12:26:29;100536.41;;;5.64;100.00
68169;BME280;54981;50.206;15.978;2022-11-12T12:31:53;100530.19;;;5.69;100.00
68169;BME280;54981;50.206;15.978;2022-11-12T12:34:25;100532.00;;;5.63;100.00
68169;BME280;54981;50.206;15.978;2022-11-12T12:37:41;100530.25;;;5.60;100.00
68169;BME280;54981;50.206;15.978;2022-11-12T12:39:57;100533.69;;;5.70;100.00
68169;BME280;54981;50.206;15.978;2022-11-12T12:45:02;100538.09;;;5.71;100.00
68169;BME280;54981;50.206;15.978;2022-11-12T12:47:40;100530.19;;;5.69;100.00
68169;BME280;54981;50.206;15.978;2022-11-12T12:50:13;100529.19;;;5.80;100.00
68169;BME280;54981;50.206;15.978;2022-11-12T12:53:14;100528.28;;;5.84;100.00
68169;BME280;54981;50.206;15.978;2022-11-12T12:55:42;100523.06;;;5.74;100.00
68169;BME280;54981;50.206;15.978;2022-11-12T13:00:59;100510.72;;;5.76;100.00
68169;BME280;54981;50.206;15.978;2022-11-12T13:06:26;100511.63;;;5.75;100.00
68169;BME280;54981;50.206;15.978;2022-11-12T13:09:05;100512.50;;;5.78;100.00
68169;BME280;54981;50.206;15.978;2022-11-12T13:19:32;100514.09;;;5.91;100.00
68169;BME280;54981;50.206;15.978;2022-11-12T13:37:42;100504.44;;;5.90;100.00
68169;BME280;54981;50.206;15.978;2022-11-12T13:40:12;100510.72;;;5.76;100.00
68169;BME280;54981;50.206;15.978;2022-11-12T13:42:39;100520.44;;;5.74;100.00
68169;BME280;54981;50.206;15.978;2022-11-12T13:45:19;100512.56;;;5.68;100.00
68169;BME280;54981;50.206;15.978;2022-11-12T13:47:46;100506.44;;;5.65;100.00
68169;BME280;54981;50.206;15.978;2022-11-12T13:50:15;100514.41;;;5.62;100.00
68169;BME280;54981;50.206;15.978;2022-11-12T13:52:41;100510.88;;;5.61;100.00
68169;BME280;54981;50.206;15.978;2022-11-12T13:55:15;100505.59;;;5.61;100.00
68169;BME280;54981;50.206;15.978;2022-11-12T13:57:44;100507.38;;;5.59;100.00
68169;BME280;54981;50.206;15.978;2022-11-12T14:02:43;100500.09;;;5.81;100.00
68169;BME280;54981;50.206;15.978;2022-11-12T14:05:15;100507.09;;;5.87;100.00
68169;BME280;54981;50.206;15.978;2022-11-12T14:08:03;100493.97;;;5.79;100.00
68169;BME280;54981;50.206;15.978;2022-11-12T14:10:55;100491.25;;;5.84;100.00
68169;BME280;54981;50.206;15.978;2022-11-12T14:21:38;100488.00;;;5.59;100.00